Time;durP1;ratioP1;P1;durP2;ratioP2;P2;SDS_P1;SDS_P2;PMS_P1;PMS_P2;Temp;Humidity;BMP_temperature;BMP_pressure;BME280_temperature;BME280_humidity;BME280_pressure;Samples;Min_cycle;Max_cycle;Signal;HPM_P1;HPM_P2
2021/12/20 00:00:24;;;;;;;0.60;0.60;;;;;;;1.61;94.35;97729.19;29395;234;63005;-59
2021/12/20 00:00:57;;;;;;;0.60;0.60;;;;;;;1.60;94.61;97727.56;29394;250;64013;-59
2021/12/20 00:01:28;;;;;;;0.60;0.60;;;;;;;1.61;94.64;97726.53;29373;227;63012;-60
2021/12/20 00:02:00;;;;;;;0.70;0.70;;;;;;;1.60;94.60;97728.38;29373;274;63009;-60
2021/12/20 00:02:31;;;;;;;0.60;0.60;;;;;;;1.62;94.58;97725.47;29395;306;63010;-59
2021/12/20 00:03:02;;;;;;;0.60;0.60;;;;;;;1.62;94.75;97726.31;29395;197;63009;-60
2021/12/20 00:03:34;;;;;;;0.60;0.60;;;;;;;1.62;94.44;97722.81;29395;346;63004;-60
2021/12/20 00:04:06;;;;;;;0.60;0.60;;;;;;;1.61;94.47;97724.66;29373;210;63015;-60
2021/12/20 00:04:39;;;;;;;0.60;0.60;;;;;;;1.60;94.48;97712.31;29373;198;63004;-59
2021/12/20 00:05:12;;;;;;;0.60;0.60;;;;;;;1.60;94.81;97719.53;29394;240;64014;-59
2021/12/20 00:05:43;;;;;;;0.70;0.70;;;;;;;1.62;94.74;97715.59;29371;210;64009;-59
2021/12/20 00:06:15;;;;;;;0.60;0.60;;;;;;;1.65;94.84;97714.34;29373;387;63009;-60
2021/12/20 00:06:46;;;;;;;0.60;0.60;;;;;;;1.65;94.49;97714.34;29373;260;63005;-62
2021/12/20 00:07:19;;;;;;;0.60;0.60;;;;;;;1.67;94.64;97717.62;29373;206;63009;-61
2021/12/20 00:07:51;;;;;;;0.60;0.60;;;;;;;1.66;94.37;97711.47;29395;197;63005;-59
2021/12/20 00:08:22;;;;;;;0.60;0.60;;;;;;;1.67;94.50;97710.44;29373;204;63009;-59
2021/12/20 00:09:00;;;;;;;0.60;0.60;;;;;;;1.67;94.16;97706.94;29395;199;63004;-59
2021/12/20 00:09:49;;;;;;;0.60;0.60;;;;;;;1.67;94.02;97707.75;29395;202;63009;-60
2021/12/20 00:10:21;;;;;;;0.70;0.70;;;;;;;1.68;94.30;97713.94;29371;365;64009;-61
2021/12/20 00:10:59;;;;;;;0.60;0.60;;;;;;;1.67;94.48;97707.75;29373;204;63009;-60
2021/12/20 00:11:32;;;;;;;0.60;0.60;;;;;;;1.68;94.31;97713.94;29395;214;63004;-59
2021/12/20 00:12:10;;;;;;;0.60;0.60;;;;;;;1.68;94.37;97708.56;29372;376;64008;-59
2021/12/20 00:12:42;;;;;;;0.60;0.60;;;;;;;1.67;94.23;97709.63;29373;220;63004;-59
2021/12/20 00:13:16;;;;;;;0.60;0.60;;;;;;;1.68;94.22;97705.91;29371;199;64014;-61
2021/12/20 00:13:48;;;;;;;0.80;0.80;;;;;;;1.68;94.40;97703.22;29373;262;63005;-60
2021/12/20 00:14:21;;;;;;;0.60;0.60;;;;;;;1.68;94.37;97708.56;29373;310;63027;-60
2021/12/20 00:14:52;;;;;;;0.60;0.60;;;;;;;1.66;94.15;97703.44;29373;224;63005;-59
2021/12/20 00:15:23;;;;;;;0.60;0.60;;;;;;;1.66;94.35;97699.94;29371;214;64013;-60
2021/12/20 00:15:55;;;;;;;0.60;0.60;;;;;;;1.65;94.37;97699.13;29373;213;63005;-60
2021/12/20 00:16:31;;;;;;;0.60;0.60;;;;;;;1.66;94.48;97697.28;29373;345;63009;-60
2021/12/20 00:17:03;;;;;;;0.65;0.65;;;;;;;1.66;94.31;97694.59;29373;248;63004;-60
2021/12/20 00:17:34;;;;;;;0.60;0.60;;;;;;;1.67;94.68;97696.22;29373;340;63009;-59
2021/12/20 00:18:05;;;;;;;0.60;0.60;;;;;;;1.67;94.42;97694.38;29373;198;63008;-59
2021/12/20 00:18:36;;;;;;;0.60;0.60;;;;;;;1.67;94.42;97691.69;29373;228;63008;-60
2021/12/20 00:19:10;;;;;;;0.60;0.60;;;;;;;1.67;94.58;97696.22;29394;229;64023;-59
2021/12/20 00:19:42;;;;;;;0.60;0.60;;;;;;;1.65;94.72;97698.31;29373;367;63009;-60
2021/12/20 00:20:13;;;;;;;0.60;0.60;;;;;;;1.65;94.38;97698.31;29373;327;63005;-60
2021/12/20 00:20:45;;;;;;;0.60;0.60;;;;;;;1.64;94.68;97688.62;29395;250;63016;-60
2021/12/20 00:21:18;;;;;;;10.40;8.07;;;;;;;1.61;94.55;97691.75;29391;253;64005;-59
2021/12/20 00:21:54;;;;;;;0.60;0.60;;;;;;;1.61;94.36;97697.09;29371;287;64002;-59
2021/12/20 00:22:25;;;;;;;0.60;0.60;;;;;;;1.60;94.64;97695.44;29395;200;63005;-61
2021/12/20 00:22:56;;;;;;;0.60;0.60;;;;;;;1.58;94.70;97692.19;29373;285;63009;-60
2021/12/20 00:23:27;;;;;;;0.60;0.60;;;;;;;1.58;94.67;97697.53;29373;256;63005;-60
2021/12/20 00:23:58;;;;;;;0.60;0.60;;;;;;;1.57;94.87;97701.22;29395;237;63009;-59
2021/12/20 00:24:30;;;;;;;0.60;0.60;;;;;;;1.56;94.64;97696.91;29395;267;63004;-60
2021/12/20 00:25:02;;;;;;;0.60;0.60;;;;;;;1.56;94.82;97695.06;29395;239;63009;-59
2021/12/20 00:25:34;;;;;;;0.60;0.60;;;;;;;1.56;94.65;97689.72;29395;340;63004;-60
2021/12/20 00:26:06;;;;;;;4.20;4.00;;;;;;;1.57;95.04;97695.88;29394;229;64003;-59
2021/12/20 00:26:37;;;;;;;0.60;0.60;;;;;;;1.59;94.54;97699.16;29373;212;63004;-59
2021/12/20 00:27:11;;;;;;;0.60;0.60;;;;;;;1.58;94.80;97692.19;29395;238;63009;-60
2021/12/20 00:27:42;;;;;;;0.60;0.60;;;;;;;1.59;94.63;97685.78;29394;234;64009;-59
2021/12/20 00:28:18;;;;;;;0.60;0.60;;;;;;;1.59;94.91;97691.97;29394;206;64014;-58
2021/12/20 00:28:50;;;;;;;0.60;0.60;;;;;;;1.60;94.98;97690.09;29395;271;63005;-59
2021/12/20 00:29:22;;;;;;;0.60;0.60;;;;;;;1.60;94.75;97695.44;29394;210;64013;-59
2021/12/20 00:29:53;;;;;;;0.60;0.60;;;;;;;1.61;94.99;97686.41;29395;291;63005;-60
2021/12/20 00:30:30;;;;;;;0.70;0.70;;;;;;;1.62;94.90;97693.38;29372;236;63009;-58
2021/12/20 00:31:01;;;;;;;0.60;0.60;;;;;;;1.61;94.94;97681.03;29395;222;63005;-60
2021/12/20 00:31:42;;;;;;;0.60;0.60;;;;;;;1.60;94.84;97690.09;29395;203;63009;-61
2021/12/20 00:32:23;;;;;;;0.60;0.60;;;;;;;1.59;94.67;97685.78;29394;199;64009;-59
2021/12/20 00:32:54;;;;;;;0.60;0.60;;;;;;;1.60;94.99;97684.75;29395;230;63009;-59
2021/12/20 00:33:28;;;;;;;0.60;0.60;;;;;;;1.61;94.75;97681.03;29395;258;63004;-60
2021/12/20 00:34:02;;;;;;;0.60;0.60;;;;;;;1.62;94.99;97680.00;29395;247;63008;-59
2021/12/20 00:34:36;;;;;;;0.70;0.70;;;;;;;1.62;94.69;97671.97;29373;219;63005;-61
2021/12/20 00:35:12;;;;;;;0.60;0.60;;;;;;;1.63;94.88;97673.63;29373;224;63009;-60
2021/12/20 00:35:44;;;;;;;0.60;0.60;;;;;;;1.63;94.81;97673.63;29395;229;63005;-59
2021/12/20 00:36:21;;;;;;;0.60;0.60;;;;;;;1.64;94.73;97669.91;29395;211;63009;-60
2021/12/20 00:37:02;;;;;;;0.60;0.60;;;;;;;1.65;94.64;97684.94;29373;242;63005;-60
2021/12/20 00:40:23;;;;;;;0.60;0.60;;;;;;;1.63;94.83;97684.31;29417;243;63004;-60
2021/12/20 00:40:55;;;;;;;0.60;0.60;;;;;;;1.62;94.58;97674.66;29373;198;63000;-60
2021/12/20 00:41:26;;;;;;;0.60;0.60;;;;;;;1.62;94.59;97680.00;29373;222;63004;-60
2021/12/20 00:41:57;;;;;;;0.60;0.60;;;;;;;1.63;94.54;97684.31;29373;322;63008;-60
2021/12/20 00:42:28;;;;;;;0.60;0.60;;;;;;;1.62;94.80;97675.47;29373;287;63005;-60
2021/12/20 00:43:01;;;;;;;0.60;0.60;;;;;;;1.63;94.48;97684.31;29371;330;64009;-60
2021/12/20 00:43:53;;;;;;;0.60;0.60;;;;;;;1.63;94.65;97682.47;29373;299;63016;-59
2021/12/20 00:44:24;;;;;;;0.60;0.60;;;;;;;1.64;94.85;97683.28;29395;206;63005;-60
2021/12/20 00:44:57;;;;;;;0.60;0.60;;;;;;;1.65;94.83;97687.59;29395;210;63009;-59
2021/12/20 00:45:33;;;;;;;0.60;0.60;;;;;;;1.65;94.42;97688.44;29373;197;63005;-60
2021/12/20 00:46:05;;;;;;;0.60;0.60;;;;;;;1.65;94.62;97682.25;29373;313;63009;-60
2021/12/20 00:46:37;;;;;;;0.60;0.60;;;;;;;1.64;94.41;97673.41;29373;198;63004;-58
2021/12/20 00:47:09;;;;;;;0.60;0.60;;;;;;;1.65;94.83;97685.75;29372;205;64009;-60
2021/12/20 00:47:41;;;;;;;0.60;0.60;;;;;;;1.66;94.48;97681.22;29395;224;63011;-59
2021/12/20 00:48:13;;;;;;;0.60;0.60;;;;;;;1.67;94.64;97680.19;29394;198;64013;-60
2021/12/20 00:48:51;;;;;;;0.60;0.60;;;;;;;1.67;94.38;97677.50;29395;198;63004;-60
2021/12/20 00:49:23;;;;;;;0.60;0.60;;;;;;;1.65;94.42;97683.06;29395;203;63008;-59
2021/12/20 00:49:54;;;;;;;0.60;0.60;;;;;;;1.64;94.21;97680.62;29395;268;63005;-59
2021/12/20 00:50:29;;;;;;;0.60;0.60;;;;;;;1.61;94.13;97681.03;29395;362;63009;-60
2021/12/20 00:51:01;;;;;;;0.60;0.60;;;;;;;1.60;94.39;97680.22;29373;235;63005;-60
2021/12/20 00:51:32;;;;;;;1.67;1.67;;;;;;;1.61;94.37;97678.38;29395;206;63009;-60
2021/12/20 00:52:04;;;;;;;0.60;0.60;;;;;;;1.61;94.16;97681.88;29395;243;63005;-60
2021/12/20 00:52:37;;;;;;;0.60;0.60;;;;;;;1.62;94.11;97682.69;29395;227;63015;-59
2021/12/20 00:53:10;;;;;;;0.60;0.60;;;;;;;1.63;94.48;97676.31;29395;245;63004;-60
2021/12/20 00:53:42;;;;;;;0.60;0.60;;;;;;;1.65;94.42;97684.94;29394;278;64013;-60
2021/12/20 00:54:13;;;;;;;0.60;0.60;;;;;;;1.65;94.50;97679.56;29395;229;63004;-59
2021/12/20 00:54:47;;;;;;;0.60;0.60;;;;;;;1.65;94.30;97676.91;29395;205;63015;-59
2021/12/20 00:55:22;;;;;;;0.60;0.60;;;;;;;1.66;94.18;97675.87;29395;264;63004;-58
2021/12/20 00:55:53;;;;;;;0.60;0.60;;;;;;;1.66;94.34;97676.69;29395;254;63008;-59
2021/12/20 00:56:24;;;;;;;0.60;0.60;;;;;;;1.67;94.45;97675.66;29395;250;63005;-59
2021/12/20 00:56:57;;;;;;;0.60;0.60;;;;;;;1.68;94.20;97677.28;29373;226;63009;-59
2021/12/20 00:57:28;;;;;;;0.60;0.60;;;;;;;1.70;94.31;97684.28;29395;282;63005;-61
2021/12/20 00:58:02;;;;;;;0.60;0.60;;;;;;;1.70;94.18;97681.59;29395;235;63009;-58
2021/12/20 00:58:35;;;;;;;0.60;0.60;;;;;;;1.71;94.52;97678.72;29373;236;63005;-60
2021/12/20 00:59:08;;;;;;;0.60;0.60;;;;;;;1.71;94.42;97676.03;29394;240;64013;-60
2021/12/20 00:59:41;;;;;;;0.60;0.60;;;;;;;1.71;94.46;97673.38;29395;202;63005;-60
2021/12/20 01:00:16;;;;;;;0.60;0.60;;;;;;;1.72;94.13;97677.69;29395;220;63009;-59
2021/12/20 01:00:51;;;;;;;0.60;0.60;;;;;;;1.71;94.52;97676.03;29395;257;63004;-60
2021/12/20 01:01:22;;;;;;;0.88;0.88;;;;;;;1.73;94.14;97667.81;29395;197;63009;-60
2021/12/20 01:01:54;;;;;;;0.60;0.60;;;;;;;1.71;94.33;97670.69;29395;334;63004;-60
2021/12/20 01:02:25;;;;;;;0.60;0.60;;;;;;;1.73;94.43;97668.63;29395;230;63009;-60
2021/12/20 01:02:58;;;;;;;0.60;0.60;;;;;;;1.73;94.43;97668.63;29395;217;63004;-59
2021/12/20 01:03:33;;;;;;;0.60;0.60;;;;;;;1.73;94.08;97663.28;29395;239;63008;-59
2021/12/20 01:04:08;;;;;;;0.60;0.60;;;;;;;1.73;94.32;97673.97;29395;221;63008;-59
2021/12/20 01:04:39;;;;;;;0.60;0.60;;;;;;;1.74;94.06;97669.41;29394;219;64014;-60
2021/12/20 01:05:11;;;;;;;0.60;0.60;;;;;;;1.74;94.37;97670.22;29395;219;63005;-60
2021/12/20 01:05:43;;;;;;;0.60;0.60;;;;;;;1.74;93.98;97678.25;29395;237;63009;-60
2021/12/20 01:06:14;;;;;;;0.60;0.60;;;;;;;1.74;94.01;97675.56;29394;212;64009;-59
2021/12/20 01:06:45;;;;;;;0.60;0.60;;;;;;;1.73;94.22;97671.28;29395;199;63009;-57
2021/12/20 01:07:16;;;;;;;0.60;0.60;;;;;;;1.74;94.22;97677.44;29395;242;63005;-60
2021/12/20 01:07:48;;;;;;;0.60;0.60;;;;;;;1.74;94.05;97680.94;29395;204;63009;-60
2021/12/20 01:08:20;;;;;;;0.60;0.60;;;;;;;1.74;94.05;97680.94;29371;323;64009;-61
2021/12/20 01:08:52;;;;;;;0.60;0.60;;;;;;;1.74;94.10;97670.22;29395;238;63009;-60
2021/12/20 01:09:23;;;;;;;0.60;0.60;;;;;;;1.74;94.04;97675.56;29373;237;63004;-59
2021/12/20 01:09:58;;;;;;;0.60;0.60;;;;;;;1.74;94.04;97680.94;29395;199;63024;-59
2021/12/20 01:10:30;;;;;;;0.60;0.60;;;;;;;1.75;94.06;97677.22;29373;202;63004;-60
2021/12/20 01:11:02;;;;;;;0.60;0.60;;;;;;;1.75;94.15;97682.56;29371;275;64013;-60
2021/12/20 01:11:38;;;;;;;0.60;0.60;;;;;;;1.74;94.16;97680.94;29395;231;63005;-59
2021/12/20 01:12:19;;;;;;;0.60;0.60;;;;;;;1.74;94.25;97672.91;29371;235;64014;-61
2021/12/20 01:12:51;;;;;;;0.60;0.60;;;;;;;1.76;94.15;97678.03;29417;228;63005;-60
2021/12/20 01:13:28;;;;;;;0.60;0.60;;;;;;;1.76;94.13;97670.84;29395;196;63009;-60
2021/12/20 01:14:00;;;;;;;0.60;0.60;;;;;;;1.77;94.20;97672.47;29395;265;63005;-59
2021/12/20 01:14:35;;;;;;;0.60;0.60;;;;;;;1.78;93.69;97671.44;29373;223;63009;-62
2021/12/20 01:15:07;;;;;;;0.60;0.60;;;;;;;1.77;93.77;97672.47;29395;197;63012;-59
2021/12/20 01:15:46;;;;;;;0.60;0.60;;;;;;;1.79;93.64;97666.91;29395;293;63009;-60
2021/12/20 01:16:17;;;;;;;0.60;0.60;;;;;;;1.78;94.01;97660.72;29395;218;63004;-60
2021/12/20 01:16:50;;;;;;;0.60;0.60;;;;;;;1.78;93.60;97665.25;29394;302;64013;-60
2021/12/20 01:17:21;;;;;;;0.60;0.60;;;;;;;1.77;93.71;97669.78;29395;202;63004;-59
2021/12/20 01:17:53;;;;;;;0.60;0.60;;;;;;;1.76;93.77;97662.81;29395;239;63009;-60
2021/12/20 01:18:24;;;;;;;0.60;0.60;;;;;;;1.75;93.52;97660.34;29395;211;63000;-59
2021/12/20 01:18:56;;;;;;;0.60;0.60;;;;;;;1.76;93.75;97662.81;29394;219;64013;-59
2021/12/20 01:19:27;;;;;;;0.60;0.60;;;;;;;1.75;93.91;97671.88;29373;202;63005;-59
2021/12/20 01:19:59;;;;;;;0.60;0.60;;;;;;;1.74;93.78;97667.56;29395;209;63009;-59
2021/12/20 01:20:30;;;;;;;0.70;0.70;;;;;;;1.74;93.58;97664.06;29395;231;63005;-60
2021/12/20 01:21:02;;;;;;;0.60;0.60;;;;;;;1.72;93.68;97666.97;29395;210;63009;-60
2021/12/20 01:21:34;;;;;;;0.62;0.62;;;;;;;1.71;93.84;97662.66;29395;235;63005;-59
2021/12/20 01:22:06;;;;;;;0.70;0.70;;;;;;;1.72;93.63;97666.97;29394;210;64009;-59
2021/12/20 01:22:38;;;;;;;0.65;0.65;;;;;;;1.72;94.01;97666.16;29395;254;63005;-59
2021/12/20 01:23:11;;;;;;;0.70;0.70;;;;;;;1.72;93.61;97671.50;29395;214;63009;-58
2021/12/20 01:23:42;;;;;;;0.60;0.60;;;;;;;1.72;93.85;97671.50;29394;218;64002;-62
2021/12/20 01:24:13;;;;;;;0.60;0.60;;;;;;;1.71;93.61;97665.34;29395;200;63009;-60
2021/12/20 01:24:44;;;;;;;0.60;0.60;;;;;;;1.71;93.92;97665.34;29395;203;63004;-58
2021/12/20 01:25:17;;;;;;;0.60;0.60;;;;;;;1.72;93.77;97666.97;29395;262;63009;-59
2021/12/20 01:25:51;;;;;;;0.60;0.60;;;;;;;1.72;93.83;97666.16;29395;229;63004;-59
2021/12/20 01:26:23;;;;;;;0.70;0.70;;;;;;;1.72;93.50;97664.31;29395;203;63008;-59
2021/12/20 01:26:55;;;;;;;0.60;0.60;;;;;;;1.71;93.82;97665.34;29373;238;63005;-60
2021/12/20 01:27:26;;;;;;;0.60;0.60;;;;;;;1.71;93.43;97657.31;29395;202;63005;-60
2021/12/20 01:27:58;;;;;;;0.60;0.60;;;;;;;1.71;93.48;97660.00;29394;237;64009;-59
2021/12/20 01:28:30;;;;;;;0.60;0.60;;;;;;;1.72;93.54;97666.97;29373;216;63009;-60
2021/12/20 01:29:02;;;;;;;0.60;0.60;;;;;;;1.71;93.33;97662.66;29395;203;63005;-59
2021/12/20 01:29:33;;;;;;;0.60;0.60;;;;;;;1.72;93.71;97655.47;29394;251;64031;-60
2021/12/20 01:30:07;;;;;;;0.60;0.60;;;;;;;1.70;93.67;97663.69;29395;222;63005;-59
2021/12/20 01:30:39;;;;;;;0.60;0.60;;;;;;;1.70;93.41;97658.34;29395;210;63009;-59
2021/12/20 01:31:11;;;;;;;0.60;0.60;;;;;;;1.71;93.33;97667.19;29395;239;63007;-59
2021/12/20 01:31:42;;;;;;;0.60;0.60;;;;;;;1.72;93.50;97666.16;29395;207;63009;-60
2021/12/20 01:32:13;;;;;;;0.60;0.60;;;;;;;1.73;93.32;97668.63;29395;311;63004;-59
2021/12/20 01:32:45;;;;;;;0.60;0.60;;;;;;;1.73;93.31;97668.63;29395;198;63009;-60
2021/12/20 01:33:19;;;;;;;1.75;1.70;;;;;;;1.72;93.14;97675.00;29373;329;63018;-59
2021/12/20 01:33:50;;;;;;;0.60;0.60;;;;;;;1.71;92.98;97673.38;29395;227;63019;-58
2021/12/20 01:34:22;;;;;;;0.60;0.60;;;;;;;1.69;93.25;97667.41;29394;246;64009;-59
2021/12/20 01:34:54;;;;;;;0.60;0.60;;;;;;;1.71;93.08;97668.00;29395;222;63009;-60
2021/12/20 01:35:28;;;;;;;0.60;0.60;;;;;;;1.72;93.35;97672.34;29395;202;63005;-59
2021/12/20 01:35:59;;;;;;;0.60;0.60;;;;;;;1.72;93.04;97666.97;29394;267;64009;-60
2021/12/20 01:36:31;;;;;;;0.60;0.60;;;;;;;1.71;93.17;97670.69;29395;213;63005;-59
2021/12/20 01:37:03;;;;;;;0.60;0.60;;;;;;;1.68;93.15;97666.59;29395;204;63017;-60
2021/12/20 01:37:34;;;;;;;0.60;0.60;;;;;;;1.68;92.87;97671.94;29395;220;63008;-59
2021/12/20 01:38:08;;;;;;;0.60;0.60;;;;;;;1.67;92.90;97675.66;29395;210;63009;-60
2021/12/20 01:38:39;;;;;;;0.60;0.60;;;;;;;1.66;93.02;97673.19;29394;197;64009;-59
2021/12/20 01:39:11;;;;;;;0.60;0.60;;;;;;;1.64;93.19;97669.91;29394;225;64013;-60
2021/12/20 01:39:43;;;;;;;0.60;0.60;;;;;;;1.64;93.12;97675.25;29395;204;63004;-59
2021/12/20 01:40:16;;;;;;;0.60;0.60;;;;;;;1.64;93.01;97669.91;29395;196;63023;-58
2021/12/20 01:40:47;;;;;;;0.70;0.70;;;;;;;1.63;93.05;97670.94;29395;201;63004;-60
2021/12/20 01:41:18;;;;;;;0.60;0.60;;;;;;;1.63;93.50;97669.09;29395;220;63008;-60
2021/12/20 01:41:52;;;;;;;0.60;0.60;;;;;;;1.64;93.30;97667.25;29395;221;63010;-59
2021/12/20 01:42:26;;;;;;;0.60;0.60;;;;;;;1.64;93.54;97672.59;29395;241;63024;-59
2021/12/20 01:42:58;;;;;;;0.60;0.60;;;;;;;1.64;93.27;97669.91;29395;225;63005;-59
2021/12/20 01:43:30;;;;;;;0.60;0.60;;;;;;;1.63;93.64;97663.75;29394;224;64013;-59
2021/12/20 01:44:02;;;;;;;0.60;0.60;;;;;;;1.63;93.42;97662.94;29395;202;63005;-61
2021/12/20 01:44:36;;;;;;;0.60;0.60;;;;;;;1.63;93.59;97660.25;29395;209;63009;-61
2021/12/20 01:45:22;;;;;;;0.60;0.60;;;;;;;1.63;93.47;97662.94;29395;216;63005;-60
2021/12/20 01:45:54;;;;;;;0.60;0.60;;;;;;;1.62;93.53;97658.59;29394;229;64013;-60
2021/12/20 01:46:25;;;;;;;0.60;0.60;;;;;;;1.62;93.45;97661.28;29395;213;63004;-58
2021/12/20 01:46:59;;;;;;;0.60;0.60;;;;;;;1.62;93.81;97656.75;29395;217;63020;-59
2021/12/20 01:47:35;;;;;;;0.60;0.60;;;;;;;1.61;93.58;97659.66;29395;274;63004;-59
2021/12/20 01:48:10;;;;;;;0.60;0.60;;;;;;;1.60;93.65;97663.34;29373;276;63009;-59
2021/12/20 01:48:43;;;;;;;0.60;0.60;;;;;;;1.60;93.65;97658.00;29394;330;63999;-59
2021/12/20 01:49:17;;;;;;;0.60;0.60;;;;;;;1.59;93.73;97662.53;29395;203;63009;-59
2021/12/20 01:50:03;;;;;;;1.00;1.00;;;;;;;1.60;93.80;97658.00;29395;303;63005;-60
2021/12/20 01:50:46;;;;;;;0.60;0.60;;;;;;;1.61;93.97;97659.66;29373;232;63009;-59
2021/12/20 01:51:47;;;;;;;0.60;0.60;;;;;;;1.60;93.49;97666.03;29373;229;63014;-59
2021/12/20 01:52:22;;;;;;;0.70;0.70;;;;;;;1.57;93.89;97659.25;29373;321;63009;-59
2021/12/20 01:52:53;;;;;;;0.60;0.60;;;;;;;1.57;93.90;97661.94;29371;315;64009;-60
2021/12/20 01:53:25;;;;;;;0.60;0.60;;;;;;;1.56;93.91;97656.78;29371;275;64013;-60
2021/12/20 01:53:58;;;;;;;0.70;0.70;;;;;;;1.54;93.77;97664.22;29395;378;63004;-59
2021/12/20 01:54:31;;;;;;;0.60;0.60;;;;;;;1.53;93.82;97665.25;29373;257;63009;-59
2021/12/20 01:55:04;;;;;;;0.60;0.60;;;;;;;1.50;93.72;97657.66;29373;243;63004;-59
2021/12/20 01:55:35;;;;;;;0.55;0.55;;;;;;;1.49;93.85;97658.69;29373;202;63008;-59
2021/12/20 01:56:08;;;;;;;0.60;0.60;;;;;;;1.48;93.74;97663.22;29371;248;64008;-60
2021/12/20 01:56:44;;;;;;;0.60;0.60;;;;;;;1.47;93.81;97658.91;29395;368;63008;-60
2021/12/20 01:57:16;;;;;;;0.60;0.60;;;;;;;1.49;93.96;97656.03;29373;282;63005;-60
2021/12/20 01:57:51;;;;;;;0.60;0.60;;;;;;;1.49;94.15;97656.84;29371;280;64013;-60
2021/12/20 01:58:27;;;;;;;0.60;0.60;;;;;;;1.49;93.95;97656.03;29395;278;63005;-58
2021/12/20 01:59:06;;;;;;;0.60;0.60;;;;;;;1.48;93.95;97660.53;29373;212;63009;-59
2021/12/20 01:59:40;;;;;;;0.60;0.60;;;;;;;1.48;94.08;97662.41;29395;257;63005;-59
2021/12/20 02:00:16;;;;;;;0.60;0.60;;;;;;;1.46;93.85;97656.44;29373;262;63009;-60
2021/12/20 02:01:38;;;;;;;0.70;0.70;;;;;;;1.44;94.05;97653.16;29373;277;63009;-60
2021/12/20 02:02:11;;;;;;;0.60;0.60;;;;;;;1.42;93.96;97655.25;29394;211;64009;-59
2021/12/20 02:02:43;;;;;;;0.82;0.82;;;;;;;1.40;94.15;97652.78;29373;232;63008;-60
2021/12/20 02:03:14;;;;;;;0.60;0.60;;;;;;;1.40;94.21;97652.78;29373;235;63004;-59
2021/12/20 02:03:51;;;;;;;0.60;0.60;;;;;;;1.42;94.18;97657.91;29394;305;64014;-60
2021/12/20 02:04:23;;;;;;;0.60;0.60;;;;;;;1.43;94.15;97656.88;29371;210;64009;-60
2021/12/20 02:05:01;;;;;;;0.60;0.60;;;;;;;1.43;94.38;97662.22;29394;226;64014;-58
2021/12/20 02:05:51;;;;;;;0.60;0.60;;;;;;;1.43;94.24;97659.56;29395;218;63005;-60
2021/12/20 02:06:31;;;;;;;0.60;0.60;;;;;;;1.42;94.29;97660.59;29395;288;63009;-59
2021/12/20 02:07:02;;;;;;;0.60;0.60;;;;;;;1.40;94.18;97651.97;29373;280;63005;-59
2021/12/20 02:07:48;;;;;;;0.60;0.60;;;;;;;1.38;94.39;97660.22;29373;243;63009;-59
2021/12/20 02:08:28;;;;;;;0.60;0.60;;;;;;;1.37;94.44;97663.13;29395;224;63004;-58
2021/12/20 02:09:02;;;;;;;0.60;0.60;;;;;;;1.38;94.34;97659.41;29373;239;63009;-59
2021/12/20 02:09:34;;;;;;;0.60;0.60;;;;;;;1.36;94.50;97651.59;29394;269;64009;-59
2021/12/20 02:10:08;;;;;;;0.60;0.60;;;;;;;1.37;94.56;97652.41;29373;199;63009;-59
2021/12/20 02:10:40;;;;;;;0.60;0.60;;;;;;;1.36;94.61;97656.13;29373;211;63004;-59
2021/12/20 02:11:12;;;;;;;0.60;0.60;;;;;;;1.34;94.48;97659.84;29373;221;63026;-59
2021/12/20 02:11:48;;;;;;;0.60;0.60;;;;;;;1.34;94.34;97649.12;29373;200;63005;-59
2021/12/20 02:12:19;;;;;;;0.60;0.60;;;;;;;1.36;94.53;97656.94;29373;220;63009;-60
2021/12/20 02:12:51;;;;;;;0.60;0.60;;;;;;;1.36;94.32;97650.78;29371;271;64009;-60
2021/12/20 02:13:28;;;;;;;1.45;1.45;;;;;;;1.37;94.58;97649.75;29373;222;63009;-59
2021/12/20 02:14:00;;;;;;;0.60;0.60;;;;;;;1.37;94.75;97658.59;29373;329;63005;-59
2021/12/20 02:14:31;;;;;;;0.60;0.60;;;;;;;1.37;94.49;97658.59;29395;378;63009;-59
2021/12/20 02:15:03;;;;;;;0.60;0.60;;;;;;;1.37;94.60;97649.75;29371;290;64009;-59
2021/12/20 02:15:34;;;;;;;0.60;0.60;;;;;;;1.37;94.47;97663.13;29373;304;63009;-59
2021/12/20 02:16:06;;;;;;;0.60;0.60;;;;;;;1.37;94.55;97652.41;29373;287;63004;-60
2021/12/20 02:16:40;;;;;;;0.60;0.60;;;;;;;1.36;94.63;97656.13;29373;307;63009;-59
2021/12/20 02:17:14;;;;;;;0.60;0.60;;;;;;;1.37;94.59;97655.09;29373;233;63004;-60
2021/12/20 02:17:45;;;;;;;0.60;0.60;;;;;;;1.37;94.59;97663.13;29395;217;63008;-60
2021/12/20 02:18:17;;;;;;;0.50;0.50;;;;;;;1.35;94.59;97657.97;29395;218;63004;-59
2021/12/20 02:18:49;;;;;;;0.60;0.60;;;;;;;1.35;94.46;97655.31;29395;230;63009;-59
2021/12/20 02:19:20;;;;;;;0.60;0.60;;;;;;;1.36;94.68;97662.28;29395;240;63005;-60
2021/12/20 02:19:59;;;;;;;0.60;0.60;;;;;;;1.37;94.66;97652.41;29394;220;64014;-59
2021/12/20 02:20:33;;;;;;;0.60;0.60;;;;;;;1.39;94.85;97655.69;29395;242;63005;-60
2021/12/20 02:21:05;;;;;;;0.60;0.60;;;;;;;1.39;94.54;97655.69;29395;228;63009;-59
2021/12/20 02:21:38;;;;;;;0.60;0.60;;;;;;;1.37;94.70;97658.59;29395;214;63005;-59
2021/12/20 02:22:09;;;;;;;0.60;0.60;;;;;;;1.39;94.71;97655.69;29395;238;63017;-59
2021/12/20 02:22:40;;;;;;;0.60;0.60;;;;;;;1.39;94.79;97650.34;29395;228;63005;-59
2021/12/20 02:23:11;;;;;;;0.60;0.60;;;;;;;1.40;94.67;97651.97;29395;230;63009;-59
2021/12/20 02:23:43;;;;;;;0.60;0.60;;;;;;;1.40;94.84;97655.44;29395;274;63004;-59
2021/12/20 02:24:15;;;;;;;0.60;0.60;;;;;;;1.43;94.83;97656.88;29372;198;63009;-58
2021/12/20 02:24:46;;;;;;;0.60;0.60;;;;;;;1.44;94.70;97655.84;29371;232;64009;-59
2021/12/20 02:25:17;;;;;;;0.60;0.60;;;;;;;1.43;94.80;97649.69;29395;343;63008;-58
2021/12/20 02:25:53;;;;;;;0.60;0.60;;;;;;;1.45;94.78;97654.81;29373;256;63004;-58
2021/12/20 02:26:25;;;;;;;0.60;0.60;;;;;;;1.45;94.75;97652.13;29373;331;63009;-59
2021/12/20 02:26:56;;;;;;;0.60;0.60;;;;;;;1.43;94.59;97647.00;29395;247;63005;-60
2021/12/20 02:27:28;;;;;;;0.60;0.60;;;;;;;1.45;94.67;97649.47;29373;244;63020;-59
2021/12/20 02:28:08;;;;;;;0.60;0.60;;;;;;;1.45;94.87;97646.78;29373;213;63005;-58
2021/12/20 02:28:45;;;;;;;0.60;0.60;;;;;;;1.45;94.76;97644.94;29373;214;63009;-60
2021/12/20 02:29:26;;;;;;;0.60;0.60;;;;;;;1.47;94.77;97642.88;29373;263;63005;-60
2021/12/20 02:30:11;;;;;;;0.60;0.60;;;;;;;1.47;94.67;97642.03;29393;327;64013;-60
2021/12/20 02:38:17;;;;;;;0.60;0.60;;;;;;;1.49;94.54;97639.97;29373;361;63004;-59
2021/12/20 02:38:50;;;;;;;3.28;1.98;;;;;;;1.50;94.45;97630.91;29373;197;63009;-60
2021/12/20 02:39:21;;;;;;;0.60;0.60;;;;;;;1.50;94.63;97630.91;29373;202;63004;-61
2021/12/20 02:39:53;;;;;;;0.60;0.60;;;;;;;1.51;94.56;97635.22;29373;337;63009;-59
2021/12/20 02:40:26;;;;;;;0.60;0.60;;;;;;;1.51;94.45;97632.56;29373;240;63004;-59
2021/12/20 02:41:24;;;;;;;0.60;0.60;;;;;;;1.50;94.65;97630.91;29371;244;64013;-59
2021/12/20 02:41:55;;;;;;;0.60;0.60;;;;;;;1.50;94.42;97630.91;29371;354;64009;-59
2021/12/20 02:42:33;;;;;;;0.60;0.60;;;;;;;1.50;94.50;97636.25;29373;254;63009;-59
2021/12/20 02:43:04;;;;;;;0.60;0.60;;;;;;;1.50;94.53;97637.09;29373;197;63005;-60
2021/12/20 02:43:40;;;;;;;0.60;0.60;;;;;;;1.50;94.42;97626.38;29395;206;63009;-61
2021/12/20 02:44:18;;;;;;;0.60;0.60;;;;;;;1.51;94.67;97627.19;29395;312;63005;-60
2021/12/20 02:45:00;;;;;;;0.60;0.60;;;;;;;1.50;94.61;97630.91;29371;283;64013;-61
2021/12/20 02:45:33;;;;;;;0.60;0.60;;;;;;;1.51;94.55;97629.87;29373;339;63017;-59
2021/12/20 02:46:11;;;;;;;0.60;0.60;;;;;;;1.50;94.39;97637.09;29373;298;63009;-60
2021/12/20 02:47:46;;;;;;;0.60;0.60;;;;;;;1.52;94.55;97634.19;29373;343;63009;-59
2021/12/20 02:48:18;;;;;;;0.60;0.60;;;;;;;1.52;94.75;97629.66;29373;205;63004;-59
2021/12/20 02:48:49;;;;;;;0.60;0.60;;;;;;;1.52;94.42;97628.84;29373;253;63009;-60
2021/12/20 02:49:24;;;;;;;0.60;0.60;;;;;;;1.53;94.62;97619.78;29373;223;63005;-59
2021/12/20 02:49:57;;;;;;;0.60;0.60;;;;;;;1.52;94.41;97627.00;29371;213;64014;-62
2021/12/20 02:50:28;;;;;;;0.60;0.60;;;;;;;1.53;94.36;97627.81;29371;314;64009;-61
2021/12/20 02:50:59;;;;;;;0.60;0.60;;;;;;;1.51;94.36;97629.87;29373;196;63009;-59
2021/12/20 02:51:32;;;;;;;0.60;0.60;;;;;;;1.51;94.56;97621.84;29373;237;63005;-59
2021/12/20 02:52:07;;;;;;;0.60;0.60;;;;;;;1.52;94.29;97624.31;29373;278;63009;-59
2021/12/20 02:52:39;;;;;;;0.60;0.60;;;;;;;1.53;94.36;97631.31;29372;218;64005;-59
2021/12/20 02:53:10;;;;;;;0.60;0.60;;;;;;;1.52;94.57;97621.63;29373;296;63009;-60
2021/12/20 02:53:42;;;;;;;0.60;0.60;;;;;;;1.54;94.32;97632.13;29373;298;63004;-61
2021/12/20 02:54:14;;;;;;;0.60;0.60;;;;;;;1.55;94.33;97628.41;29373;197;63009;-59